Time;durP1;ratioP1;P1;durP2;ratioP2;P2;SDS_P1;SDS_P2;PMS_P1;PMS_P2;Temp;Humidity;BMP_temperature;BMP_pressure;BME280_temperature;BME280_humidity;BME280_pressure;Samples;Min_cycle;Max_cycle;Signal;HPM_P1;HPM_P2
2023/06/13 00:00:57;;;;;;;6.10;3.77;;;;;;;23.90;31.27;101251.13;5183016;28;20022;-67
2023/06/13 00:03:29;;;;;;;;;;;;;;;24.50;30.23;101252.66;5185841;28;20081;-68
2023/06/13 00:06:01;;;;;;;5.55;3.65;;;;;;;23.84;31.78;101257.34;5182939;28;19922;-68
2023/06/13 00:08:32;;;;;;;6.10;3.90;;;;;;;23.75;31.24;101257.56;5184151;28;20031;-68
2023/06/13 00:11:03;;;;;;;3.93;3.50;;;;;;;23.70;31.32;101251.16;5168831;28;20070;-67
2023/06/13 00:13:36;;;;;;;5.87;3.70;;;;;;;23.64;31.24;101251.94;5185094;28;20456;-68
2023/06/13 00:16:09;;;;;;;5.80;3.90;;;;;;;23.59;31.52;101251.75;5185489;28;20026;-69
2023/06/13 00:18:40;;;;;;;7.38;4.57;;;;;;;23.55;31.51;101254.00;5185623;28;20601;-67
2023/06/13 00:21:11;;;;;;;7.63;4.03;;;;;;;23.50;31.70;101256.50;5186571;28;20030;-68
2023/06/13 00:23:43;;;;;;;6.93;4.03;;;;;;;23.47;31.56;101251.56;5189413;28;20042;-67
2023/06/13 00:26:14;;;;;;;6.67;3.67;;;;;;;23.40;32.16;101248.88;5186963;28;20441;-68
2023/06/13 00:28:45;;;;;;;4.33;3.70;;;;;;;23.35;31.85;101246.00;5190274;28;20058;-68
2023/06/13 00:31:17;;;;;;;9.47;4.03;;;;;;;23.27;32.16;101246.19;5187914;28;20034;-68
2023/06/13 00:33:50;;;;;;;7.32;4.03;;;;;;;23.24;32.22;101251.94;5191500;28;20039;-69
2023/06/13 00:36:24;;;;;;;5.13;4.00;;;;;;;23.13;32.34;101253.38;5190255;28;20023;-68
2023/06/13 00:38:56;;;;;;;7.05;3.65;;;;;;;23.11;32.70;101241.22;5190817;28;20125;-69
2023/06/13 00:41:30;;;;;;;6.33;3.63;;;;;;;23.11;32.51;101247.41;5186025;28;20304;-68
2023/06/13 00:44:02;;;;;;;4.95;3.45;;;;;;;23.01;32.66;101247.78;5189287;28;20059;-69
2023/06/13 00:46:34;;;;;;;6.67;3.83;;;;;;;22.91;32.90;101250.03;5190248;28;20052;-70
2023/06/13 00:49:06;;;;;;;6.55;3.80;;;;;;;22.89;32.87;101243.22;5188492;28;20050;-69
2023/06/13 00:51:41;;;;;;;7.67;3.80;;;;;;;22.85;32.69;101248.13;5189911;28;20051;-70
2023/06/13 00:54:16;;;;;;;4.70;3.60;;;;;;;22.73;33.15;101250.56;5188331;28;20480;-68
2023/06/13 00:56:48;;;;;;;7.00;3.90;;;;;;;22.64;33.54;101246.41;5186269;28;20118;-69
2023/06/13 00:59:20;;;;;;;4.77;4.00;;;;;;;22.67;33.24;101247.88;5187799;28;20113;-68
2023/06/13 01:01:52;;;;;;;6.67;4.40;;;;;;;22.54;33.74;101248.63;5189393;28;20066;-69
2023/06/13 01:04:24;;;;;;;5.95;4.18;;;;;;;22.53;34.09;101245.13;5186440;28;20204;-68
2023/06/13 01:06:55;;;;;;;7.07;3.85;;;;;;;22.43;34.12;101244.69;5188228;28;21605;-68
2023/06/13 01:09:27;;;;;;;7.63;3.50;;;;;;;22.51;34.23;101241.84;5188672;28;20036;-68
2023/06/13 01:12:08;;;;;;;4.23;3.40;;;;;;;22.56;33.53;101234.06;5188592;28;20027;-68
2023/06/13 01:14:46;;;;;;;7.88;4.13;;;;;;;22.41;33.86;101230.72;5186074;28;20434;-68
2023/06/13 01:17:24;;;;;;;5.30;4.10;;;;;;;22.26;34.64;101233.50;5187799;28;20330;-67
2023/06/13 01:20:00;;;;;;;5.47;3.92;;;;;;;22.26;34.75;101238.03;5188905;28;20034;-69
2023/06/13 01:22:47;;;;;;;6.28;3.97;;;;;;;22.33;34.50;101230.88;5186522;28;20041;-68
2023/06/13 01:26:16;;;;;;;5.88;4.15;;;;;;;22.37;34.52;101237.47;5185510;28;20041;-68
2023/06/13 01:28:53;;;;;;;3.83;3.40;;;;;;;22.04;35.23;101238.06;5137029;29;20099;-69
2023/06/13 01:31:25;;;;;;;5.50;4.00;;;;;;;21.95;35.63;101236.59;5136440;29;20035;-68
2023/06/13 01:33:57;;;;;;;7.18;3.83;;;;;;;21.96;35.60;101238.22;5164357;28;20142;-68
2023/06/13 01:36:29;;;;;;;7.63;3.63;;;;;;;21.86;35.52;101243.94;5188628;28;20046;-67
2023/06/13 01:39:01;;;;;;;7.00;3.23;;;;;;;21.77;35.85;101234.41;5170894;28;20432;-70
2023/06/13 01:41:32;;;;;;;5.10;3.93;;;;;;;21.84;35.86;101234.47;5187603;28;20062;-69
2023/06/13 01:44:05;;;;;;;6.00;3.53;;;;;;;21.74;36.01;101244.63;5188559;28;20049;-67
2023/06/13 01:46:51;;;;;;;8.43;4.20;;;;;;;21.79;35.79;101240.38;5187363;28;20045;-67
2023/06/13 01:49:43;;;;;;;5.15;3.20;;;;;;;21.80;36.12;101234.03;5188369;28;20322;-68
2023/06/13 01:52:33;;;;;;;6.87;3.63;;;;;;;21.72;36.01;101238.69;5187215;28;20054;-68
2023/06/13 01:55:12;;;;;;;7.65;4.13;;;;;;;21.52;36.79;101231.38;5189334;28;20034;-68
2023/06/13 01:57:48;;;;;;;6.60;4.03;;;;;;;21.43;37.04;101229.84;5187016;28;20444;-69
2023/06/13 02:00:20;;;;;;;6.88;3.90;;;;;;;21.39;37.17;101231.22;5185020;28;20435;-68
2023/06/13 02:02:53;;;;;;;7.35;4.25;;;;;;;21.35;37.50;101224.63;5187462;28;20042;-68
2023/06/13 02:05:27;;;;;;;5.05;4.00;;;;;;;21.35;37.29;101224.63;5182350;28;20058;-67
2023/06/13 02:07:58;;;;;;;8.55;4.40;;;;;;;21.09;37.77;101223.34;5187351;28;20392;-67
2023/06/13 02:10:30;;;;;;;5.27;4.20;;;;;;;21.08;37.87;101231.53;5188089;28;20030;-68
2023/06/13 02:13:01;;;;;;;6.67;4.20;;;;;;;20.95;37.97;101221.56;5188340;28;20091;-67
2023/06/13 02:15:32;;;;;;;6.57;4.10;;;;;;;21.06;38.25;101231.75;5184928;28;20446;-67
2023/06/13 02:18:04;;;;;;;7.43;4.10;;;;;;;21.01;38.16;101227.97;5187189;28;20781;-68
2023/06/13 02:20:36;;;;;;;6.17;3.63;;;;;;;20.90;38.56;101221.31;5188013;28;20099;-67
2023/06/13 02:23:09;;;;;;;5.17;4.00;;;;;;;20.78;38.89;101233.47;5185952;28;20084;-68
2023/06/13 02:25:40;;;;;;;6.07;3.70;;;;;;;20.77;38.74;101226.50;5188108;28;20030;-69
2023/06/13 02:28:12;;;;;;;4.97;3.67;;;;;;;20.73;39.11;101223.38;5187238;28;20109;-69
2023/06/13 02:30:44;;;;;;;6.10;3.78;;;;;;;20.86;39.18;101231.50;5185009;28;20038;-69
2023/06/13 02:33:15;;;;;;;9.67;4.60;;;;;;;20.67;38.99;101225.97;5187059;28;20046;-68
2023/06/13 02:35:46;;;;;;;8.83;4.70;;;;;;;20.71;39.00;101229.91;5169293;28;20395;-70
2023/06/13 02:38:18;;;;;;;7.50;4.20;;;;;;;20.57;39.53;101234.22;5187311;28;20117;-70
2023/06/13 02:40:50;;;;;;;8.10;4.53;;;;;;;20.60;39.47;101233.88;5185939;28;20022;-69
2023/06/13 02:43:22;;;;;;;7.23;4.63;;;;;;;20.52;39.92;101234.78;5189681;28;20036;-69
2023/06/13 02:45:53;;;;;;;9.02;4.32;;;;;;;20.45;39.81;101239.16;5186724;28;20054;-69
2023/06/13 02:48:25;;;;;;;7.80;4.53;;;;;;;20.44;40.24;101232.22;5189132;28;20034;-69
2023/06/13 02:50:57;;;;;;;7.47;4.90;;;;;;;20.39;40.00;101230.09;5182062;28;20436;-68
2023/06/13 02:53:28;;;;;;;6.17;4.70;;;;;;;20.39;40.04;101232.78;5187547;28;20125;-69
2023/06/13 02:55:59;;;;;;;7.50;4.57;;;;;;;20.28;40.51;101230.56;5187768;28;20033;-69
2023/06/13 02:58:31;;;;;;;10.17;4.80;;;;;;;20.18;40.69;101228.19;5186577;28;20515;-68
2023/06/13 03:01:02;;;;;;;6.87;4.63;;;;;;;20.27;40.53;101241.41;5167377;28;20099;-69
2023/06/13 03:03:34;;;;;;;6.80;4.20;;;;;;;20.12;40.95;101228.94;5186507;28;20022;-68
2023/06/13 03:06:05;;;;;;;5.63;4.13;;;;;;;20.12;40.80;101228.94;5183889;28;20038;-67
2023/06/13 03:08:36;;;;;;;6.40;4.40;;;;;;;20.11;41.02;101229.91;5185076;28;20022;-67
2023/06/13 03:11:08;;;;;;;6.60;4.50;;;;;;;20.00;41.36;101221.56;5188035;28;20057;-69
2023/06/13 03:13:39;;;;;;;5.93;4.50;;;;;;;19.93;41.32;101232.97;5185219;28;20030;-67
2023/06/13 03:16:11;;;;;;;8.17;4.73;;;;;;;19.91;41.30;101229.63;5187318;28;20023;-68
2023/06/13 03:18:43;;;;;;;8.73;4.53;;;;;;;19.89;42.07;101234.34;5185581;28;20026;-68
2023/06/13 03:21:15;;;;;;;8.30;4.90;;;;;;;19.97;41.91;101235.25;5186275;28;20049;-69
2023/06/13 03:23:46;;;;;;;7.90;5.13;;;;;;;19.81;42.11;101230.91;5185546;28;20988;-67
2023/06/13 03:26:19;;;;;;;6.90;5.53;;;;;;;19.81;41.75;101229.09;5185201;28;20191;-68
2023/06/13 03:28:51;;;;;;;10.95;5.20;;;;;;;19.66;42.21;101231.72;5185205;28;20484;-69
2023/06/13 03:31:22;;;;;;;10.37;5.20;;;;;;;19.75;42.13;101223.69;5186261;28;20032;-68
2023/06/13 03:33:53;;;;;;;10.23;4.83;;;;;;;19.79;42.44;101219.66;5186102;28;20575;-68
2023/06/13 03:36:26;;;;;;;6.03;5.17;;;;;;;19.74;42.49;101224.69;5186218;28;20591;-68
2023/06/13 03:38:58;;;;;;;8.20;5.50;;;;;;;19.69;42.26;101223.38;5185053;28;20563;-68
2023/06/13 03:41:29;;;;;;;9.82;5.35;;;;;;;19.77;42.41;101224.31;5182538;28;20034;-68
2023/06/13 03:44:00;;;;;;;6.97;5.40;;;;;;;19.65;42.77;101222.09;5186347;28;20110;-69
2023/06/13 03:46:31;;;;;;;9.63;5.50;;;;;;;19.64;42.91;101224.94;5185180;28;20485;-68
2023/06/13 03:49:03;;;;;;;9.32;4.60;;;;;;;19.61;42.75;101218.09;5185059;28;20038;-68
2023/06/13 03:51:34;;;;;;;6.57;5.68;;;;;;;19.62;43.13;101222.47;5186733;28;20042;-68
2023/06/13 03:54:06;;;;;;;7.63;4.82;;;;;;;19.64;43.21;101225.75;5186283;28;20078;-68
2023/06/13 03:56:37;;;;;;;6.47;5.28;;;;;;;19.66;42.86;101217.59;5167930;28;20026;-68
2023/06/13 03:59:08;;;;;;;10.60;5.68;;;;;;;19.61;42.95;101225.25;5187742;28;20093;-68
2023/06/13 04:01:41;;;;;;;9.77;5.38;;;;;;;19.62;43.52;101227.78;5191139;28;20045;-69
2023/06/13 04:04:12;;;;;;;5.60;4.60;;;;;;;19.63;42.98;101224.09;5188288;28;20034;-69
2023/06/13 04:06:47;;;;;;;8.90;5.25;;;;;;;19.62;43.41;101226.94;5189554;28;20105;-67
2023/06/13 04:09:18;;;;;;;9.82;5.45;;;;;;;19.52;43.43;101229.00;5191570;28;20034;-68
2023/06/13 04:11:50;;;;;;;8.97;5.53;;;;;;;19.66;43.64;101231.72;5190989;28;20037;-69
2023/06/13 04:14:21;;;;;;;6.30;4.88;;;;;;;19.65;43.72;101230.06;5184396;28;20030;-69
2023/06/13 04:16:52;;;;;;;11.13;5.22;;;;;;;19.62;43.54;101224.28;5188281;28;20081;-69
2023/06/13 04:19:24;;;;;;;7.10;5.10;;;;;;;19.63;43.72;101228.59;5190261;28;20043;-69
2023/06/13 04:21:56;;;;;;;10.50;4.97;;;;;;;19.67;43.50;101224.56;5188459;28;20113;-68
2023/06/13 04:24:27;;;;;;;5.97;5.05;;;;;;;19.68;43.64;101221.72;5190358;28;20244;-68
2023/06/13 04:27:00;;;;;;;7.75;5.72;;;;;;;19.72;43.27;101226.69;5189984;28;20046;-68
2023/06/13 04:29:31;;;;;;;8.48;5.05;;;;;;;19.63;43.71;101210.81;5178133;28;20042;-68
2023/06/13 04:32:07;;;;;;;7.80;5.43;;;;;;;19.74;43.64;101228.16;5187042;28;20026;-68
2023/06/13 04:34:43;;;;;;;8.90;5.20;;;;;;;19.73;43.52;101229.16;5190787;28;20096;-67
2023/06/13 04:37:17;;;;;;;10.95;5.72;;;;;;;19.72;43.70;101234.66;5186033;28;20492;-68
2023/06/13 04:39:52;;;;;;;8.93;5.57;;;;;;;19.79;43.34;101240.91;5189507;28;20479;-70
2023/06/13 04:42:27;;;;;;;7.40;5.40;;;;;;;19.67;43.75;101236.03;5186396;28;20034;-69
2023/06/13 04:44:58;;;;;;;6.43;5.15;;;;;;;19.69;43.76;101247.28;5188220;28;20152;-69
2023/06/13 04:47:30;;;;;;;9.33;5.37;;;;;;;19.79;43.57;101244.41;5189618;28;20030;-69
2023/06/13 04:50:02;;;;;;;8.02;5.70;;;;;;;19.80;43.94;101245.22;5188464;28;20445;-69
2023/06/13 04:52:33;;;;;;;7.57;5.83;;;;;;;19.79;43.86;101243.56;5187645;28;20026;-68
2023/06/13 04:55:05;;;;;;;7.95;6.28;;;;;;;19.82;43.74;101254.66;5187403;28;20084;-69
2023/06/13 04:57:36;;;;;;;12.10;6.10;;;;;;;19.88;44.03;101253.09;5187343;28;20010;-69
2023/06/13 05:00:09;;;;;;;9.67;6.97;;;;;;;19.90;43.90;101246.59;5186213;28;20038;-69
2023/06/13 05:02:41;;;;;;;11.13;6.75;;;;;;;19.90;44.39;101249.28;5171182;28;20026;-69
2023/06/13 05:05:16;;;;;;;9.00;7.23;;;;;;;19.94;44.57;101252.41;5187157;28;20030;-69
2023/06/13 05:07:47;;;;;;;11.45;6.40;;;;;;;20.00;44.53;101256.16;5190126;28;20058;-68
2023/06/13 05:10:19;;;;;;;9.30;6.80;;;;;;;20.06;43.65;101264.22;5188081;28;20141;-68
2023/06/13 05:12:50;;;;;;;9.77;6.70;;;;;;;20.06;44.53;101256.25;5183639;28;20026;-70
2023/06/13 05:15:22;;;;;;;11.03;6.00;;;;;;;20.11;44.56;101263.69;5186831;28;20038;-68
2023/06/13 05:17:54;;;;;;;11.73;6.83;;;;;;;20.14;44.07;101264.13;5188892;28;20508;-69
2023/06/13 05:20:26;;;;;;;10.98;6.53;;;;;;;20.15;43.64;101259.63;5187899;28;20058;-69
2023/06/13 05:22:58;;;;;;;10.87;6.97;;;;;;;20.24;44.00;101263.06;5189148;28;20101;-70
2023/06/13 05:25:29;;;;;;;7.78;6.18;;;;;;;20.27;43.70;101266.19;5190580;28;20165;-69
2023/06/13 05:28:01;;;;;;;9.35;6.13;;;;;;;20.33;43.60;101268.09;5185093;28;20275;-70
2023/06/13 05:30:33;;;;;;;9.32;6.07;;;;;;;20.37;43.81;101272.03;5187234;28;20439;-69
2023/06/13 05:33:04;;;;;;;11.57;6.57;;;;;;;20.39;43.02;101270.03;5169019;28;20026;-72
2023/06/13 05:35:35;;;;;;;13.15;6.75;;;;;;;20.39;43.02;101267.38;5185115;28;20117;-70
2023/06/13 05:38:09;;;;;;;9.05;6.05;;;;;;;20.49;43.21;101266.25;5187809;28;20085;-69
2023/06/13 05:40:40;;;;;;;8.57;5.80;;;;;;;20.49;42.90;101261.78;5187432;28;20085;-71
2023/06/13 05:43:12;;;;;;;10.43;6.23;;;;;;;20.60;43.23;101271.94;5186406;28;20042;-69
2023/06/13 05:45:44;;;;;;;7.93;5.93;;;;;;;20.62;42.88;101267.28;5185637;28;20040;-71
2023/06/13 05:48:15;;;;;;;8.07;5.63;;;;;;;20.71;43.21;101270.66;5188360;28;20538;-71
2023/06/13 05:50:46;;;;;;;11.48;5.43;;;;;;;20.78;42.77;101273.41;5188342;28;20403;-69
2023/06/13 05:53:18;;;;;;;9.53;5.70;;;;;;;20.83;42.74;101274.47;5185181;28;20022;-71
2023/06/13 05:55:49;;;;;;;10.65;6.57;;;;;;;20.86;42.15;101273.28;5186186;28;20034;-69
2023/06/13 05:58:20;;;;;;;8.00;5.37;;;;;;;20.97;42.40;101266.66;5187294;28;20542;-70
2023/06/13 06:00:52;;;;;;;7.63;5.77;;;;;;;21.01;42.47;101271.41;5187585;28;20511;-69
2023/06/13 06:03:23;;;;;;;8.77;5.97;;;;;;;21.08;42.44;101277.66;5188569;28;20499;-69
2023/06/13 06:05:54;;;;;;;7.80;5.70;;;;;;;21.18;41.73;101276.53;5188521;28;20113;-70
2023/06/13 06:08:26;;;;;;;9.00;6.13;;;;;;;21.26;42.28;101285.22;5189389;28;20034;-68
2023/06/13 06:10:57;;;;;;;6.47;5.20;;;;;;;21.34;42.10;101278.97;5187408;28;20018;-70
2023/06/13 06:13:28;;;;;;;7.07;5.67;;;;;;;21.45;41.76;101288.31;5190620;28;20513;-68
2023/06/13 06:15:59;;;;;;;8.53;5.90;;;;;;;21.56;41.10;101282.47;5189045;28;20109;-70
2023/06/13 06:18:31;;;;;;;8.47;5.33;;;;;;;21.64;41.07;101281.50;5191660;28;20735;-70
2023/06/13 06:21:02;;;;;;;8.03;5.80;;;;;;;21.75;41.26;101283.66;5191096;28;20109;-68
2023/06/13 06:23:34;;;;;;;7.30;5.30;;;;;;;21.85;40.71;101276.94;5190327;28;20057;-71
2023/06/13 06:26:05;;;;;;;8.23;5.43;;;;;;;21.96;40.96;101286.25;5189677;28;20042;-71
2023/06/13 06:28:38;;;;;;;15.93;6.40;;;;;;;21.99;40.53;101279.72;5190742;28;20624;-70
2023/06/13 06:31:09;;;;;;;9.38;5.53;;;;;;;22.12;40.00;101277.13;5189124;28;20084;-69
2023/06/13 06:33:40;;;;;;;8.77;5.53;;;;;;;22.24;39.72;101277.47;5191069;28;20396;-70
2023/06/13 06:36:12;;;;;;;7.63;5.77;;;;;;;22.35;39.87;101282.25;5191129;28;20558;-70
2023/06/13 06:38:43;;;;;;;10.57;5.33;;;;;;;22.46;39.54;101273.66;5189303;28;20408;-72
2023/06/13 06:41:21;;;;;;;9.30;5.65;;;;;;;22.44;39.03;101274.88;5304441;27;20392;-69
2023/06/13 06:43:52;;;;;;;7.43;5.10;;;;;;;22.53;39.16;101285.19;5301362;28;20038;-69
2023/06/13 06:46:23;;;;;;;11.57;5.90;;;;;;;22.67;39.16;101275.41;5302964;28;20024;-69
2023/06/13 06:48:55;;;;;;;9.63;5.80;;;;;;;22.82;39.24;101273.41;5298335;28;20498;-71
2023/06/13 06:51:26;;;;;;;7.87;5.17;;;;;;;22.96;38.73;101268.97;5301750;28;20027;-69
2023/06/13 06:53:57;;;;;;;8.70;5.33;;;;;;;23.00;38.38;101267.53;5295442;28;20035;-69
2023/06/13 06:56:28;;;;;;;14.80;6.07;;;;;;;23.16;38.92;101274.34;5297140;28;20023;-69
2023/06/13 06:59:00;;;;;;;6.33;4.70;;;;;;;23.22;38.58;101270.03;5300161;28;20028;-69
2023/06/13 07:01:31;;;;;;;8.77;4.90;;;;;;;23.47;38.72;101263.06;5303727;28;20031;-69
2023/06/13 07:04:03;;;;;;;8.80;5.43;;;;;;;23.54;37.78;101268.44;5297269;28;20510;-70
2023/06/13 07:06:34;;;;;;;7.17;5.13;;;;;;;23.65;38.33;101267.81;5299074;28;20020;-69
2023/06/13 07:09:05;;;;;;;12.03;5.30;;;;;;;23.83;37.84;101269.06;5300291;28;20489;-69
2023/06/13 07:11:37;;;;;;;8.37;5.40;;;;;;;23.89;37.41;101265.56;5299106;28;20016;-70
2023/06/13 07:14:08;;;;;;;10.73;5.90;;;;;;;23.94;36.80;101271.94;5300831;28;20036;-69
2023/06/13 07:16:39;;;;;;;10.50;5.77;;;;;;;24.10;37.54;101278.72;5298850;28;20350;-69
2023/06/13 07:19:11;;;;;;;7.77;5.67;;;;;;;24.19;36.57;101280.13;5300823;28;20012;-69
2023/06/13 07:21:42;;;;;;;7.93;4.87;;;;;;;24.47;37.60;101276.34;5296836;28;20477;-69
2023/06/13 07:24:13;;;;;;;5.67;4.97;;;;;;;24.44;36.16;101285.66;5296437;28;20353;-69
2023/06/13 07:26:45;;;;;;;7.90;5.10;;;;;;;24.48;36.58;101281.53;5298417;28;20849;-69
2023/06/13 07:29:16;;;;;;;11.87;4.97;;;;;;;24.60;36.32;101278.19;5296837;28;20422;-69
2023/06/13 07:31:48;;;;;;;10.17;5.23;;;;;;;24.65;35.65;101281.84;5296978;28;20047;-69
2023/06/13 07:34:19;;;;;;;8.00;5.27;;;;;;;24.73;35.72;101272.75;5298422;28;20023;-70
2023/06/13 07:36:51;;;;;;;6.43;4.50;;;;;;;24.85;35.44;101283.63;5296122;28;20085;-70
2023/06/13 07:39:22;;;;;;;10.03;5.27;;;;;;;24.95;35.48;101270.59;5295552;28;20052;-70
2023/06/13 07:41:53;;;;;;;6.53;4.87;;;;;;;24.98;34.38;101270.97;5304504;28;20027;-68
2023/06/13 07:44:25;;;;;;;8.23;5.10;;;;;;;25.19;34.71;101274.38;5302510;28;20114;-68
2023/06/13 07:46:56;;;;;;;9.43;5.10;;;;;;;25.29;34.83;101269.38;5294832;28;20031;-69
2023/06/13 07:49:30;;;;;;;9.87;4.90;;;;;;;25.39;35.09;101275.09;5294380;28;20035;-69
2023/06/13 07:52:02;;;;;;;11.40;5.57;;;;;;;25.29;34.02;101274.72;5282502;28;20424;-69
2023/06/13 07:54:33;;;;;;;6.00;5.30;;;;;;;25.41;33.35;101275.66;5285069;28;20103;-69
2023/06/13 07:57:06;;;;;;;6.97;4.80;;;;;;;25.62;33.87;101273.66;5286175;28;20064;-70
2023/06/13 07:59:37;;;;;;;7.25;4.63;;;;;;;25.72;32.85;101288.25;5289214;28;20556;-69
2023/06/13 08:02:09;;;;;;;6.67;5.10;;;;;;;25.85;33.22;101276.59;5284695;28;20036;-69
2023/06/13 08:04:40;;;;;;;8.48;4.97;;;;;;;25.76;33.40;101277.88;5283863;28;20071;-69
2023/06/13 08:07:12;;;;;;;9.50;5.43;;;;;;;26.06;34.15;101277.19;5300814;28;20054;-70
2023/06/13 08:09:43;;;;;;;7.97;4.80;;;;;;;26.08;33.68;101283.19;5303955;28;20032;-69
2023/06/13 08:12:15;;;;;;;8.73;4.87;;;;;;;26.19;33.38;101277.09;5300082;28;20396;-69
2023/06/13 08:14:46;;;;;;;9.37;5.07;;;;;;;26.18;33.27;101281.63;5302901;28;20382;-69
2023/06/13 08:17:17;;;;;;;7.13;5.37;;;;;;;26.25;32.52;101270.78;5305606;28;20089;-69
2023/06/13 08:19:50;;;;;;;9.43;5.30;;;;;;;26.37;33.48;101284.34;5301501;28;20024;-69
2023/06/13 08:22:21;;;;;;;8.48;5.15;;;;;;;26.53;33.12;101282.94;5303425;28;20417;-69
2023/06/13 08:24:52;;;;;;;8.27;4.83;;;;;;;26.62;32.83;101276.19;5302392;28;20031;-69
2023/06/13 08:27:24;;;;;;;7.47;4.60;;;;;;;26.76;32.98;101269.59;5306300;28;20054;-70
2023/06/13 08:29:56;;;;;;;6.70;4.70;;;;;;;26.67;32.19;101268.28;5308598;28;20018;-69
2023/06/13 08:32:28;;;;;;;7.43;4.38;;;;;;;26.90;31.85;101279.13;5303273;28;20028;-69
2023/06/13 08:34:59;;;;;;;7.63;4.93;;;;;;;26.79;32.23;101277.22;5299383;28;20032;-70
2023/06/13 08:37:31;;;;;;;9.40;5.70;;;;;;;27.15;32.99;101276.31;5296323;28;20108;-71
2023/06/13 08:40:05;;;;;;;9.83;5.30;;;;;;;27.10;32.15;101269.97;5302479;28;20473;-69
2023/06/13 08:42:37;;;;;;;7.47;4.85;;;;;;;27.03;32.04;101275.44;5304355;28;20036;-69
2023/06/13 08:45:09;;;;;;;5.47;4.75;;;;;;;27.19;32.30;101275.84;5305436;28;20477;-69
2023/06/13 08:47:46;;;;;;;7.45;4.85;;;;;;;27.41;31.49;101261.63;5309837;28;20015;-69
2023/06/13 08:50:24;;;;;;;8.80;4.63;;;;;;;27.45;31.64;101263.88;5297956;28;20066;-69
2023/06/13 08:52:56;;;;;;;6.70;4.22;;;;;;;27.64;31.33;101260.84;5298990;28;20024;-69
2023/06/13 08:55:29;;;;;;;8.02;4.43;;;;;;;27.63;30.47;101261.09;5298878;28;20032;-69
2023/06/13 08:58:03;;;;;;;7.00;5.05;;;;;;;27.70;29.69;101253.72;5307302;28;20049;-70
2023/06/13 09:00:35;;;;;;;8.15;4.57;;;;;;;27.71;30.04;101254.53;5305239;28;20384;-69
2023/06/13 09:03:12;;;;;;;8.95;4.90;;;;;;;27.80;29.71;101243.19;5305120;28;20059;-70
2023/06/13 09:05:44;;;;;;;7.07;4.70;;;;;;;27.99;30.24;101240.38;5284608;28;20378;-69
2023/06/13 09:08:16;;;;;;;7.65;4.30;;;;;;;28.12;29.11;101249.03;5301413;28;20028;-69
2023/06/13 09:10:48;;;;;;;5.97;4.55;;;;;;;28.29;29.66;101242.91;5306472;28;20027;-69
2023/06/13 09:13:21;;;;;;;;;;;;;;;29.09;28.36;101247.44;5306079;28;20465;-69
2023/06/13 09:15:53;;;;;;;8.20;5.20;;;;;;;28.38;29.10;101240.69;5308050;28;20514;-70
2023/06/13 09:18:26;;;;;;;7.07;5.00;;;;;;;28.64;29.23;101250.91;5300431;28;20106;-70
2023/06/13 09:20:57;;;;;;;7.03;4.65;;;;;;;28.80;29.58;101244.75;5300500;28;20111;-69
2023/06/13 09:23:31;;;;;;;7.60;4.55;;;;;;;28.65;28.63;101257.13;5298305;28;20032;-69
2023/06/13 09:26:02;;;;;;;5.00;4.50;;;;;;;28.71;28.40;101250.75;5304647;28;20446;-69
2023/06/13 09:28:42;;;;;;;12.77;5.43;;;;;;;28.75;28.10;101250.06;5299734;28;20024;-70
2023/06/13 09:31:13;;;;;;;6.40;4.63;;;;;;;28.72;28.57;101241.63;5298621;28;20028;-69
2023/06/13 09:33:45;;;;;;;7.50;4.73;;;;;;;28.85;27.69;101244.00;5299595;28;20026;-70
2023/06/13 09:36:18;;;;;;;7.15;4.47;;;;;;;29.04;28.49;101236.56;5304054;28;20051;-69
2023/06/13 09:38:50;;;;;;;7.20;5.03;;;;;;;29.07;28.53;101241.47;5297987;28;20024;-70
2023/06/13 09:41:23;;;;;;;7.57;4.55;;;;;;;29.16;27.81;101244.56;5302891;28;20107;-69
2023/06/13 09:43:54;;;;;;;5.05;4.38;;;;;;;29.07;27.48;101238.78;5300603;28;20443;-70
2023/06/13 09:46:27;;;;;;;7.37;4.33;;;;;;;29.17;27.51;101243.50;5300152;28;20027;-69
2023/06/13 09:48:58;;;;;;;7.15;4.25;;;;;;;29.09;27.27;101242.03;5305224;28;20400;-69
2023/06/13 09:51:32;;;;;;;7.77;4.10;;;;;;;29.34;27.70;101237.06;5296151;28;20027;-69
2023/06/13 09:54:03;;;;;;;5.30;4.18;;;;;;;29.22;27.02;101240.91;5299547;28;20074;-69
2023/06/13 09:56:34;;;;;;;6.07;4.17;;;;;;;29.31;25.90;101242.94;5298918;28;20043;-69
2023/06/13 09:59:05;;;;;;;6.03;3.50;;;;;;;29.46;26.30;101239.69;5302996;28;20037;-70
2023/06/13 10:01:38;;;;;;;5.83;3.63;;;;;;;29.64;26.10;101222.44;5303359;28;20027;-69
2023/06/13 10:04:10;;;;;;;8.40;4.10;;;;;;;29.85;26.87;101234.31;5296437;28;20024;-70
2023/06/13 10:06:42;;;;;;;10.40;3.80;;;;;;;29.89;25.33;101232.78;5297414;28;20020;-69
2023/06/13 10:09:13;;;;;;;7.72;4.30;;;;;;;29.93;25.38;101228.53;5305155;28;20035;-69
2023/06/13 10:11:51;;;;;;;7.80;4.17;;;;;;;30.00;25.69;101223.75;5297468;28;20032;-68
2023/06/13 10:14:23;;;;;;;8.95;4.05;;;;;;;29.97;24.76;101232.34;5295475;28;20109;-69
2023/06/13 10:17:05;;;;;;;7.55;3.72;;;;;;;30.29;25.41;101235.22;5299698;28;20107;-69
2023/06/13 10:19:39;;;;;;;6.35;4.18;;;;;;;30.34;25.78;101229.03;5303547;28;20102;-69
2023/06/13 10:22:12;;;;;;;5.85;4.20;;;;;;;30.29;24.55;101227.09;5300733;28;20027;-70
2023/06/13 10:24:44;;;;;;;7.30;4.18;;;;;;;30.51;24.28;101227.09;5302001;28;20035;-68
2023/06/13 10:27:17;;;;;;;;;;;;;;;31.30;22.86;101241.97;5299715;28;20563;-69
2023/06/13 10:30:27;;;;;;;7.07;3.80;;;;;;;30.78;24.34;101221.72;5302156;28;20026;-69
2023/06/13 10:33:32;;;;;;;7.55;3.90;;;;;;;30.87;23.76;101232.06;5296390;28;20333;-70
2023/06/13 10:37:08;;;;;;;7.75;3.85;;;;;;;30.95;23.34;101232.44;5299947;28;20024;-69
2023/06/13 10:40:05;;;;;;;7.07;3.60;;;;;;;30.67;24.14;101227.25;5277594;28;20485;-70
2023/06/13 10:42:41;;;;;;;5.97;4.03;;;;;;;30.62;23.27;101219.91;5303605;28;20011;-70
2023/06/13 10:45:21;;;;;;;5.82;3.60;;;;;;;30.73;24.47;101223.53;5310882;28;20024;-69
2023/06/13 10:47:53;;;;;;;6.53;3.97;;;;;;;30.65;24.08;101227.50;5297715;28;20036;-69
2023/06/13 10:50:24;;;;;;;6.13;3.83;;;;;;;30.62;23.64;101233.41;5302726;28;20059;-69
2023/06/13 10:52:55;;;;;;;6.45;3.60;;;;;;;30.81;23.72;101225.00;5296331;28;20035;-69
2023/06/13 10:55:29;;;;;;;9.70;4.13;;;;;;;30.66;22.82;101217.50;5298610;28;20057;-70
2023/06/13 10:58:01;;;;;;;5.70;4.00;;;;;;;30.74;22.83;101219.78;5300160;28;20518;-70
2023/06/13 11:00:37;;;;;;;4.75;3.67;;;;;;;30.88;23.41;101225.59;5303214;28;20107;-69
2023/06/13 11:03:12;;;;;;;7.15;3.83;;;;;;;30.86;21.87;101225.03;5307528;28;20541;-69
2023/06/13 11:05:44;;;;;;;6.20;3.80;;;;;;;31.19;22.02;101211.25;5302070;28;20085;-69
2023/06/13 11:08:21;;;;;;;6.07;3.80;;;;;;;31.11;21.54;101217.16;5294776;28;20481;-70
2023/06/13 11:10:53;;;;;;;7.30;3.72;;;;;;;31.08;22.10;101214.94;5297214;28;20027;-70
2023/06/13 11:13:26;;;;;;;6.90;3.53;;;;;;;31.25;21.62;101209.38;5299531;28;20052;-70
2023/06/13 11:16:17;;;;;;;4.82;4.32;;;;;;;31.49;21.61;101205.25;5305211;28;20033;-69
2023/06/13 11:18:48;;;;;;;4.72;3.60;;;;;;;31.12;21.30;101216.06;5298276;28;20115;-70
2023/06/13 11:21:19;;;;;;;4.30;3.65;;;;;;;31.15;20.99;101217.44;5300966;28;20030;-69
2023/06/13 11:23:54;;;;;;;4.33;3.70;;;;;;;31.21;21.04;101210.97;5297781;28;20146;-70
2023/06/13 11:26:26;;;;;;;5.47;3.65;;;;;;;31.36;20.69;101207.59;5302761;28;20053;-69
2023/06/13 11:28:58;;;;;;;4.40;3.37;;;;;;;31.53;21.05;101202.84;5315895;28;20053;-69
2023/06/13 11:31:30;;;;;;;5.82;3.92;;;;;;;31.47;21.18;101204.69;5308507;28;20024;-70
2023/06/13 11:34:04;;;;;;;6.07;4.10;;;;;;;31.56;21.22;101204.19;5300292;28;20039;-70
2023/06/13 11:36:41;;;;;;;9.07;4.07;;;;;;;31.64;21.69;101211.88;5305067;28;20019;-70
2023/06/13 11:39:22;;;;;;;7.63;3.53;;;;;;;31.76;21.40;101192.69;5307741;28;20048;-70
2023/06/13 11:41:55;;;;;;;8.02;3.42;;;;;;;31.71;20.96;101204.31;5305748;28;20039;-70
2023/06/13 11:44:26;;;;;;;7.00;3.60;;;;;;;31.71;20.81;101191.59;5310243;28;20137;-68
2023/06/13 11:46:57;;;;;;;5.47;3.70;;;;;;;32.00;20.69;101199.31;5313882;28;20087;-70
2023/06/13 11:49:29;;;;;;;5.17;3.50;;;;;;;32.00;20.92;101202.03;5310442;28;20089;-69
2023/06/13 11:52:13;;;;;;;5.60;3.67;;;;;;;32.15;20.58;101210.22;5310473;28;20032;-70